sensor_id;sensor_type;location;lat;lon;timestamp;P1;durP1;ratioP1;P2;durP2;ratioP2
43664;SDS011;29263;48.172;11.484;2022-11-13T00:01:22;22.73;;;10.73;;
43664;SDS011;29263;48.172;11.484;2022-11-13T00:03:49;52.03;;;11.70;;
43664;SDS011;29263;48.172;11.484;2022-11-13T00:06:15;29.60;;;11.90;;
43664;SDS011;29263;48.172;11.484;2022-11-13T00:08:42;22.73;;;11.07;;
43664;SDS011;29263;48.172;11.484;2022-11-13T00:11:12;15.23;;;10.67;;
43664;SDS011;29263;48.172;11.484;2022-11-13T00:13:40;28.60;;;13.03;;
43664;SDS011;29263;48.172;11.484;2022-11-13T00:16:09;31.37;;;11.40;;
43664;SDS011;29263;48.172;11.484;2022-11-13T00:18:36;31.42;;;11.98;;
43664;SDS011;29263;48.172;11.484;2022-11-13T00:21:05;35.80;;;11.93;;
43664;SDS011;29263;48.172;11.484;2022-11-13T00:23:33;33.20;;;11.33;;
43664;SDS011;29263;48.172;11.484;2022-11-13T00:26:33;19.27;;;11.97;;
43664;SDS011;29263;48.172;11.484;2022-11-13T00:28:53;24.57;;;11.50;;
43664;SDS011;29263;48.172;11.484;2022-11-13T00:31:21;19.03;;;11.83;;
43664;SDS011;29263;48.172;11.484;2022-11-13T00:33:47;21.07;;;11.97;;
43664;SDS011;29263;48.172;11.484;2022-11-13T00:36:14;35.87;;;11.80;;
43664;SDS011;29263;48.172;11.484;2022-11-13T00:38:44;20.27;;;11.63;;
43664;SDS011;29263;48.172;11.484;2022-11-13T00:41:09;24.50;;;11.93;;
43664;SDS011;29263;48.172;11.484;2022-11-13T00:43:36;17.60;;;10.67;;
43664;SDS011;29263;48.172;11.484;2022-11-13T00:46:01;16.40;;;10.63;;
43664;SDS011;29263;48.172;11.484;2022-11-13T00:48:27;45.17;;;12.40;;
43664;SDS011;29263;48.172;11.484;2022-11-13T00:50:53;68.33;;;13.00;;
43664;SDS011;29263;48.172;11.484;2022-11-13T00:53:18;35.77;;;11.37;;
43664;SDS011;29263;48.172;11.484;2022-11-13T00:55:45;28.93;;;10.60;;
43664;SDS011;29263;48.172;11.484;2022-11-13T00:58:14;35.87;;;11.80;;
43664;SDS011;29263;48.172;11.484;2022-11-13T01:00:40;36.67;;;11.53;;
43664;SDS011;29263;48.172;11.484;2022-11-13T01:03:08;31.67;;;11.23;;
43664;SDS011;29263;48.172;11.484;2022-11-13T01:05:35;45.13;;;11.63;;
43664;SDS011;29263;48.172;11.484;2022-11-13T01:08:02;27.53;;;11.17;;
43664;SDS011;29263;48.172;11.484;2022-11-13T01:10:28;43.33;;;11.13;;
43664;SDS011;29263;48.172;11.484;2022-11-13T01:12:53;22.30;;;11.10;;
43664;SDS011;29263;48.172;11.484;2022-11-13T01:15:19;29.17;;;11.33;;
43664;SDS011;29263;48.172;11.484;2022-11-13T01:17:45;15.17;;;10.90;;
43664;SDS011;29263;48.172;11.484;2022-11-13T01:20:10;17.47;;;11.17;;
43664;SDS011;29263;48.172;11.484;2022-11-13T01:22:36;17.00;;;11.07;;
43664;SDS011;29263;48.172;11.484;2022-11-13T01:25:02;35.17;;;10.63;;
43664;SDS011;29263;48.172;11.484;2022-11-13T01:27:28;30.47;;;11.27;;
43664;SDS011;29263;48.172;11.484;2022-11-13T01:29:54;16.87;;;10.50;;
43664;SDS011;29263;48.172;11.484;2022-11-13T01:32:25;32.67;;;11.13;;
43664;SDS011;29263;48.172;11.484;2022-11-13T01:34:51;35.85;;;11.60;;
43664;SDS011;29263;48.172;11.484;2022-11-13T01:37:42;15.73;;;11.23;;
43664;SDS011;29263;48.172;11.484;2022-11-13T01:40:11;29.17;;;12.20;;
43664;SDS011;29263;48.172;11.484;2022-11-13T01:42:37;22.33;;;10.93;;
43664;SDS011;29263;48.172;11.484;2022-11-13T01:45:02;21.50;;;10.50;;
43664;SDS011;29263;48.172;11.484;2022-11-13T01:47:48;19.73;;;10.07;;
43664;SDS011;29263;48.172;11.484;2022-11-13T01:50:15;20.03;;;10.93;;
43664;SDS011;29263;48.172;11.484;2022-11-13T01:52:41;14.07;;;9.67;;
43664;SDS011;29263;48.172;11.484;2022-11-13T01:55:10;15.90;;;9.53;;
43664;SDS011;29263;48.172;11.484;2022-11-13T01:57:39;22.43;;;10.30;;
43664;SDS011;29263;48.172;11.484;2022-11-13T02:00:06;15.20;;;9.60;;
43664;SDS011;29263;48.172;11.484;2022-11-13T02:02:33;24.87;;;9.43;;
43664;SDS011;29263;48.172;11.484;2022-11-13T02:04:59;45.63;;;10.23;;
43664;SDS011;29263;48.172;11.484;2022-11-13T02:07:25;16.67;;;8.70;;
43664;SDS011;29263;48.172;11.484;2022-11-13T02:09:52;14.33;;;8.67;;
43664;SDS011;29263;48.172;11.484;2022-11-13T02:12:21;13.40;;;8.83;;
43664;SDS011;29263;48.172;11.484;2022-11-13T02:14:52;11.00;;;8.43;;
43664;SDS011;29263;48.172;11.484;2022-11-13T02:17:23;14.67;;;8.27;;
43664;SDS011;29263;48.172;11.484;2022-11-13T02:19:56;12.30;;;8.90;;
43664;SDS011;29263;48.172;11.484;2022-11-13T02:25:15;25.73;;;8.97;;
43664;SDS011;29263;48.172;11.484;2022-11-13T02:27:43;11.97;;;8.60;;
43664;SDS011;29263;48.172;11.484;2022-11-13T02:30:26;18.53;;;8.27;;
43664;SDS011;29263;48.172;11.484;2022-11-13T02:32:54;19.83;;;9.00;;
43664;SDS011;29263;48.172;11.484;2022-11-13T02:35:25;23.53;;;8.40;;
43664;SDS011;29263;48.172;11.484;2022-11-13T02:37:59;16.10;;;8.83;;
43664;SDS011;29263;48.172;11.484;2022-11-13T02:40:26;12.03;;;8.27;;
43664;SDS011;29263;48.172;11.484;2022-11-13T02:42:53;23.40;;;9.20;;
43664;SDS011;29263;48.172;11.484;2022-11-13T02:45:18;14.13;;;8.30;;
43664;SDS011;29263;48.172;11.484;2022-11-13T02:47:44;19.77;;;8.53;;
43664;SDS011;29263;48.172;11.484;2022-11-13T02:50:10;13.17;;;8.17;;
43664;SDS011;29263;48.172;11.484;2022-11-13T02:52:36;25.47;;;9.20;;
43664;SDS011;29263;48.172;11.484;2022-11-13T02:55:02;12.40;;;8.03;;
43664;SDS011;29263;48.172;11.484;2022-11-13T02:57:28;12.40;;;7.87;;
43664;SDS011;29263;48.172;11.484;2022-11-13T02:59:54;16.57;;;9.13;;
43664;SDS011;29263;48.172;11.484;2022-11-13T03:02:19;16.10;;;8.50;;
43664;SDS011;29263;48.172;11.484;2022-11-13T03:04:45;10.60;;;7.80;;
43664;SDS011;29263;48.172;11.484;2022-11-13T03:07:11;13.03;;;8.53;;
43664;SDS011;29263;48.172;11.484;2022-11-13T03:09:40;12.75;;;8.65;;
43664;SDS011;29263;48.172;11.484;2022-11-13T03:12:06;10.77;;;7.77;;
43664;SDS011;29263;48.172;11.484;2022-11-13T03:14:33;17.67;;;7.87;;
43664;SDS011;29263;48.172;11.484;2022-11-13T03:16:58;10.37;;;7.20;;
43664;SDS011;29263;48.172;11.484;2022-11-13T03:19:24;13.80;;;8.20;;
43664;SDS011;29263;48.172;11.484;2022-11-13T03:21:50;12.87;;;7.60;;
43664;SDS011;29263;48.172;11.484;2022-11-13T03:24:19;9.15;;;6.68;;
43664;SDS011;29263;48.172;11.484;2022-11-13T03:26:45;9.27;;;6.80;;
43664;SDS011;29263;48.172;11.484;2022-11-13T03:29:10;12.10;;;7.77;;
43664;SDS011;29263;48.172;11.484;2022-11-13T03:31:36;11.57;;;7.20;;
43664;SDS011;29263;48.172;11.484;2022-11-13T03:34:02;10.40;;;7.20;;
43664;SDS011;29263;48.172;11.484;2022-11-13T03:36:30;10.35;;;7.45;;
43664;SDS011;29263;48.172;11.484;2022-11-13T03:38:56;10.67;;;6.97;;
43664;SDS011;29263;48.172;11.484;2022-11-13T03:41:22;8.77;;;6.80;;
43664;SDS011;29263;48.172;11.484;2022-11-13T03:43:48;9.30;;;7.10;;
43664;SDS011;29263;48.172;11.484;2022-11-13T03:46:13;9.50;;;6.60;;
43664;SDS011;29263;48.172;11.484;2022-11-13T03:48:39;11.50;;;7.07;;
43664;SDS011;29263;48.172;11.484;2022-11-13T03:51:05;8.37;;;6.70;;
43664;SDS011;29263;48.172;11.484;2022-11-13T03:53:31;9.87;;;7.30;;
43664;SDS011;29263;48.172;11.484;2022-11-13T03:55:56;9.43;;;6.37;;
43664;SDS011;29263;48.172;11.484;2022-11-13T03:58:23;9.53;;;6.73;;
43664;SDS011;29263;48.172;11.484;2022-11-13T04:00:49;9.73;;;7.17;;
43664;SDS011;29263;48.172;11.484;2022-11-13T04:03:15;9.50;;;6.23;;
43664;SDS011;29263;48.172;11.484;2022-11-13T04:05:41;9.57;;;6.60;;
43664;SDS011;29263;48.172;11.484;2022-11-13T04:08:07;9.13;;;6.77;;
43664;SDS011;29263;48.172;11.484;2022-11-13T04:10:33;9.20;;;6.63;;
43664;SDS011;29263;48.172;11.484;2022-11-13T04:13:00;8.60;;;6.37;;
43664;SDS011;29263;48.172;11.484;2022-11-13T04:15:25;8.33;;;6.73;;
43664;SDS011;29263;48.172;11.484;2022-11-13T04:17:51;8.23;;;5.73;;
43664;SDS011;29263;48.172;11.484;2022-11-13T04:20:16;7.27;;;5.80;;
43664;SDS011;29263;48.172;11.484;2022-11-13T04:22:42;9.80;;;6.57;;
43664;SDS011;29263;48.172;11.484;2022-11-13T04:25:08;7.67;;;5.60;;
43664;SDS011;29263;48.172;11.484;2022-11-13T04:27:33;8.40;;;6.20;;
43664;SDS011;29263;48.172;11.484;2022-11-13T04:29:59;8.40;;;6.17;;
43664;SDS011;29263;48.172;11.484;2022-11-13T04:32:25;7.83;;;6.20;;
43664;SDS011;29263;48.172;11.484;2022-11-13T04:34:51;8.53;;;6.00;;
43664;SDS011;29263;48.172;11.484;2022-11-13T04:37:16;8.27;;;6.17;;
43664;SDS011;29263;48.172;11.484;2022-11-13T04:39:42;6.40;;;5.40;;
43664;SDS011;29263;48.172;11.484;2022-11-13T04:42:08;8.77;;;6.07;;
43664;SDS011;29263;48.172;11.484;2022-11-13T04:44:53;8.43;;;5.73;;
43664;SDS011;29263;48.172;11.484;2022-11-13T04:47:19;7.13;;;5.17;;
43664;SDS011;29263;48.172;11.484;2022-11-13T04:49:45;13.77;;;7.10;;
43664;SDS011;29263;48.172;11.484;2022-11-13T04:52:10;8.77;;;5.73;;
43664;SDS011;29263;48.172;11.484;2022-11-13T04:54:36;7.07;;;5.57;;
43664;SDS011;29263;48.172;11.484;2022-11-13T04:57:02;6.57;;;5.50;;
43664;SDS011;29263;48.172;11.484;2022-11-13T04:59:28;7.27;;;5.67;;
43664;SDS011;29263;48.172;11.484;2022-11-13T05:01:54;6.33;;;5.23;;
43664;SDS011;29263;48.172;11.484;2022-11-13T05:04:20;6.37;;;4.93;;
43664;SDS011;29263;48.172;11.484;2022-11-13T05:06:45;6.63;;;5.20;;
43664;SDS011;29263;48.172;11.484;2022-11-13T05:09:12;8.07;;;4.87;;
43664;SDS011;29263;48.172;11.484;2022-11-13T05:11:37;5.60;;;4.30;;
43664;SDS011;29263;48.172;11.484;2022-11-13T05:14:03;5.67;;;4.97;;
43664;SDS011;29263;48.172;11.484;2022-11-13T05:16:29;5.90;;;4.83;;
43664;SDS011;29263;48.172;11.484;2022-11-13T05:18:56;5.63;;;5.07;;
43664;SDS011;29263;48.172;11.484;2022-11-13T05:21:23;5.37;;;4.37;;
43664;SDS011;29263;48.172;11.484;2022-11-13T05:23:49;5.47;;;4.40;;
43664;SDS011;29263;48.172;11.484;2022-11-13T05:26:14;9.43;;;4.67;;
43664;SDS011;29263;48.172;11.484;2022-11-13T05:28:40;7.43;;;4.70;;
43664;SDS011;29263;48.172;11.484;2022-11-13T05:31:09;6.03;;;5.10;;
43664;SDS011;29263;48.172;11.484;2022-11-13T05:33:37;5.97;;;4.50;;
43664;SDS011;29263;48.172;11.484;2022-11-13T05:36:13;5.83;;;4.83;;
43664;SDS011;29263;48.172;11.484;2022-11-13T05:38:43;4.97;;;3.77;;
43664;SDS011;29263;48.172;11.484;2022-11-13T05:41:12;5.75;;;4.63;;
43664;SDS011;29263;48.172;11.484;2022-11-13T05:43:42;4.77;;;4.23;;
43664;SDS011;29263;48.172;11.484;2022-11-13T05:46:10;4.50;;;3.83;;
43664;SDS011;29263;48.172;11.484;2022-11-13T05:48:37;5.68;;;4.47;;
43664;SDS011;29263;48.172;11.484;2022-11-13T05:51:11;5.03;;;4.47;;
43664;SDS011;29263;48.172;11.484;2022-11-13T05:53:42;5.37;;;4.30;;
43664;SDS011;29263;48.172;11.484;2022-11-13T05:56:17;6.23;;;4.37;;
43664;SDS011;29263;48.172;11.484;2022-11-13T05:58:48;4.97;;;4.10;;
43664;SDS011;29263;48.172;11.484;2022-11-13T06:01:16;5.67;;;4.40;;
43664;SDS011;29263;48.172;11.484;2022-11-13T06:03:49;6.27;;;4.80;;
43664;SDS011;29263;48.172;11.484;2022-11-13T06:06:19;8.17;;;4.50;;
43664;SDS011;29263;48.172;11.484;2022-11-13T06:08:46;8.97;;;4.97;;
43664;SDS011;29263;48.172;11.484;2022-11-13T06:11:13;6.87;;;4.50;;
43664;SDS011;29263;48.172;11.484;2022-11-13T06:13:41;7.93;;;4.50;;
43664;SDS011;29263;48.172;11.484;2022-11-13T06:16:08;5.27;;;4.20;;
43664;SDS011;29263;48.172;11.484;2022-11-13T06:18:36;6.30;;;4.93;;
43664;SDS011;29263;48.172;11.484;2022-11-13T06:21:03;5.30;;;4.30;;
43664;SDS011;29263;48.172;11.484;2022-11-13T06:23:31;6.50;;;4.77;;
43664;SDS011;29263;48.172;11.484;2022-11-13T06:26:02;5.50;;;4.13;;
43664;SDS011;29263;48.172;11.484;2022-11-13T06:28:30;6.73;;;5.20;;
43664;SDS011;29263;48.172;11.484;2022-11-13T06:31:01;7.03;;;5.57;;
43664;SDS011;29263;48.172;11.484;2022-11-13T06:33:33;6.87;;;5.40;;
43664;SDS011;29263;48.172;11.484;2022-11-13T06:36:00;6.30;;;5.10;;
43664;SDS011;29263;48.172;11.484;2022-11-13T06:38:31;8.40;;;4.97;;
43664;SDS011;29263;48.172;11.484;2022-11-13T06:41:00;7.10;;;5.57;;
43664;SDS011;29263;48.172;11.484;2022-11-13T06:43:26;9.37;;;5.33;;
43664;SDS011;29263;48.172;11.484;2022-11-13T06:45:52;8.77;;;5.40;;
43664;SDS011;29263;48.172;11.484;2022-11-13T06:48:19;7.53;;;5.30;;
43664;SDS011;29263;48.172;11.484;2022-11-13T06:50:44;5.60;;;5.00;;
43664;SDS011;29263;48.172;11.484;2022-11-13T06:53:10;5.73;;;4.50;;
43664;SDS011;29263;48.172;11.484;2022-11-13T06:55:40;7.00;;;5.50;;
43664;SDS011;29263;48.172;11.484;2022-11-13T06:58:10;7.37;;;5.23;;
43664;SDS011;29263;48.172;11.484;2022-11-13T07:00:36;6.37;;;5.00;;
43664;SDS011;29263;48.172;11.484;2022-11-13T07:03:02;7.30;;;5.60;;
43664;SDS011;29263;48.172;11.484;2022-11-13T07:05:27;7.23;;;5.73;;
43664;SDS011;29263;48.172;11.484;2022-11-13T07:07:53;7.43;;;5.27;;
43664;SDS011;29263;48.172;11.484;2022-11-13T07:10:18;8.10;;;5.23;;
43664;SDS011;29263;48.172;11.484;2022-11-13T07:12:44;9.27;;;5.77;;
43664;SDS011;29263;48.172;11.484;2022-11-13T07:15:10;9.53;;;5.90;;
43664;SDS011;29263;48.172;11.484;2022-11-13T07:17:35;8.40;;;6.53;;
43664;SDS011;29263;48.172;11.484;2022-11-13T07:20:01;9.50;;;6.27;;
43664;SDS011;29263;48.172;11.484;2022-11-13T07:22:28;9.20;;;5.67;;
43664;SDS011;29263;48.172;11.484;2022-11-13T07:24:54;8.27;;;5.60;;
43664;SDS011;29263;48.172;11.484;2022-11-13T07:27:20;7.47;;;6.03;;
43664;SDS011;29263;48.172;11.484;2022-11-13T07:29:46;20.73;;;8.40;;
43664;SDS011;29263;48.172;11.484;2022-11-13T07:32:12;16.30;;;7.47;;
43664;SDS011;29263;48.172;11.484;2022-11-13T07:34:37;11.13;;;6.63;;
43664;SDS011;29263;48.172;11.484;2022-11-13T07:37:03;15.30;;;7.07;;
43664;SDS011;29263;48.172;11.484;2022-11-13T07:39:30;11.83;;;8.37;;
43664;SDS011;29263;48.172;11.484;2022-11-13T07:41:56;12.83;;;7.77;;
43664;SDS011;29263;48.172;11.484;2022-11-13T07:44:22;10.97;;;7.70;;
43664;SDS011;29263;48.172;11.484;2022-11-13T07:46:47;12.10;;;8.10;;
43664;SDS011;29263;48.172;11.484;2022-11-13T07:49:16;11.63;;;8.30;;
43664;SDS011;29263;48.172;11.484;2022-11-13T07:51:45;10.93;;;7.83;;
43664;SDS011;29263;48.172;11.484;2022-11-13T07:54:10;20.83;;;9.17;;
43664;SDS011;29263;48.172;11.484;2022-11-13T07:56:36;11.07;;;7.70;;
43664;SDS011;29263;48.172;11.484;2022-11-13T07:59:01;12.67;;;7.93;;
43664;SDS011;29263;48.172;11.484;2022-11-13T08:01:27;11.50;;;7.83;;
43664;SDS011;29263;48.172;11.484;2022-11-13T08:03:53;12.23;;;8.40;;
43664;SDS011;29263;48.172;11.484;2022-11-13T08:06:18;13.27;;;8.57;;
43664;SDS011;29263;48.172;11.484;2022-11-13T08:08:45;11.83;;;8.00;;
43664;SDS011;29263;48.172;11.484;2022-11-13T08:11:13;13.77;;;8.50;;
43664;SDS011;29263;48.172;11.484;2022-11-13T08:13:39;16.60;;;9.03;;
43664;SDS011;29263;48.172;11.484;2022-11-13T08:16:05;16.00;;;9.40;;
43664;SDS011;29263;48.172;11.484;2022-11-13T08:18:31;14.43;;;8.93;;
43664;SDS011;29263;48.172;11.484;2022-11-13T08:20:59;16.27;;;9.50;;
43664;SDS011;29263;48.172;11.484;2022-11-13T08:23:26;15.43;;;10.00;;
43664;SDS011;29263;48.172;11.484;2022-11-13T08:25:52;14.33;;;9.10;;
43664;SDS011;29263;48.172;11.484;2022-11-13T08:28:17;13.90;;;9.20;;
43664;SDS011;29263;48.172;11.484;2022-11-13T08:30:43;16.80;;;9.90;;
43664;SDS011;29263;48.172;11.484;2022-11-13T08:33:09;14.80;;;8.90;;
43664;SDS011;29263;48.172;11.484;2022-11-13T08:35:35;16.73;;;10.13;;
43664;SDS011;29263;48.172;11.484;2022-11-13T08:38:01;18.43;;;10.67;;
43664;SDS011;29263;48.172;11.484;2022-11-13T08:40:31;18.80;;;10.63;;
43664;SDS011;29263;48.172;11.484;2022-11-13T08:43:01;22.30;;;11.80;;
43664;SDS011;29263;48.172;11.484;2022-11-13T08:45:28;22.07;;;12.03;;
43664;SDS011;29263;48.172;11.484;2022-11-13T08:47:58;22.60;;;12.37;;
43664;SDS011;29263;48.172;11.484;2022-11-13T08:50:25;19.93;;;11.53;;
43664;SDS011;29263;48.172;11.484;2022-11-13T08:52:54;22.30;;;12.37;;
43664;SDS011;29263;48.172;11.484;2022-11-13T08:55:23;23.23;;;12.20;;
43664;SDS011;29263;48.172;11.484;2022-11-13T08:57:49;23.53;;;12.53;;
43664;SDS011;29263;48.172;11.484;2022-11-13T09:00:15;22.40;;;12.33;;
43664;SDS011;29263;48.172;11.484;2022-11-13T09:02:41;22.10;;;13.33;;
43664;SDS011;29263;48.172;11.484;2022-11-13T09:05:07;22.27;;;13.50;;
43664;SDS011;29263;48.172;11.484;2022-11-13T09:07:33;24.90;;;13.23;;
43664;SDS011;29263;48.172;11.484;2022-11-13T09:09:59;24.70;;;14.03;;
43664;SDS011;29263;48.172;11.484;2022-11-13T09:12:24;23.90;;;13.33;;
43664;SDS011;29263;48.172;11.484;2022-11-13T09:14:50;25.10;;;13.90;;
43664;SDS011;29263;48.172;11.484;2022-11-13T09:17:16;24.63;;;14.27;;
43664;SDS011;29263;48.172;11.484;2022-11-13T09:19:42;23.07;;;13.90;;
43664;SDS011;29263;48.172;11.484;2022-11-13T09:22:07;25.53;;;14.10;;
43664;SDS011;29263;48.172;11.484;2022-11-13T09:24:34;22.77;;;13.63;;
43664;SDS011;29263;48.172;11.484;2022-11-13T09:26:59;25.13;;;14.17;;
43664;SDS011;29263;48.172;11.484;2022-11-13T09:29:25;25.03;;;15.07;;
43664;SDS011;29263;48.172;11.484;2022-11-13T09:31:52;25.97;;;14.87;;
43664;SDS011;29263;48.172;11.484;2022-11-13T09:34:19;24.17;;;14.70;;
43664;SDS011;29263;48.172;11.484;2022-11-13T09:36:45;24.80;;;13.70;;
43664;SDS011;29263;48.172;11.484;2022-11-13T09:39:10;22.47;;;13.90;;
43664;SDS011;29263;48.172;11.484;2022-11-13T09:44:13;23.80;;;13.77;;
43664;SDS011;29263;48.172;11.484;2022-11-13T09:49:15;24.63;;;14.13;;
43664;SDS011;29263;48.172;11.484;2022-11-13T09:51:52;22.50;;;14.43;;
43664;SDS011;29263;48.172;11.484;2022-11-13T09:54:23;23.73;;;14.00;;
43664;SDS011;29263;48.172;11.484;2022-11-13T09:56:51;23.77;;;14.20;;
43664;SDS011;29263;48.172;11.484;2022-11-13T10:02:22;21.30;;;13.20;;
43664;SDS011;29263;48.172;11.484;2022-11-13T10:13:04;17.90;;;11.47;;
43664;SDS011;29263;48.172;11.484;2022-11-13T10:15:35;15.37;;;11.00;;
43664;SDS011;29263;48.172;11.484;2022-11-13T10:18:05;15.93;;;10.30;;
43664;SDS011;29263;48.172;11.484;2022-11-13T10:20:39;14.60;;;9.60;;
43664;SDS011;29263;48.172;11.484;2022-11-13T10:25:45;16.63;;;10.43;;
43664;SDS011;29263;48.172;11.484;2022-11-13T10:28:21;16.87;;;11.70;;
43664;SDS011;29263;48.172;11.484;2022-11-13T10:30:48;17.33;;;11.07;;
43664;SDS011;29263;48.172;11.484;2022-11-13T10:33:18;16.63;;;10.77;;
43664;SDS011;29263;48.172;11.484;2022-11-13T10:35:47;17.13;;;10.63;;
43664;SDS011;29263;48.172;11.484;2022-11-13T10:41:03;18.30;;;11.43;;
43664;SDS011;29263;48.172;11.484;2022-11-13T10:43:32;20.60;;;10.77;;
43664;SDS011;29263;48.172;11.484;2022-11-13T10:46:02;16.17;;;10.57;;
43664;SDS011;29263;48.172;11.484;2022-11-13T10:48:32;16.13;;;11.17;;
43664;SDS011;29263;48.172;11.484;2022-11-13T10:51:01;18.10;;;10.80;;
43664;SDS011;29263;48.172;11.484;2022-11-13T10:53:44;19.30;;;10.60;;
43664;SDS011;29263;48.172;11.484;2022-11-13T11:01:38;16.87;;;11.30;;
43664;SDS011;29263;48.172;11.484;2022-11-13T11:04:06;16.83;;;10.57;;
43664;SDS011;29263;48.172;11.484;2022-11-13T11:06:38;15.23;;;10.37;;
43664;SDS011;29263;48.172;11.484;2022-11-13T11:11:56;14.87;;;9.27;;
43664;SDS011;29263;48.172;11.484;2022-11-13T11:17:17;13.07;;;9.10;;
43664;SDS011;29263;48.172;11.484;2022-11-13T11:19:46;13.53;;;8.60;;
43664;SDS011;29263;48.172;11.484;2022-11-13T11:22:21;12.27;;;8.93;;
43664;SDS011;29263;48.172;11.484;2022-11-13T11:24:56;12.95;;;8.77;;
43664;SDS011;29263;48.172;11.484;2022-11-13T11:30:05;13.37;;;8.53;;
43664;SDS011;29263;48.172;11.484;2022-11-13T11:35:52;14.30;;;9.47;;
43664;SDS011;29263;48.172;11.484;2022-11-13T11:38:54;12.60;;;9.07;;
43664;SDS011;29263;48.172;11.484;2022-11-13T11:41:36;12.83;;;8.63;;
43664;SDS011;29263;48.172;11.484;2022-11-13T11:44:14;13.13;;;8.63;;
43664;SDS011;29263;48.172;11.484;2022-11-13T11:47:00;13.43;;;8.63;;
43664;SDS011;29263;48.172;11.484;2022-11-13T11:49:26;12.40;;;8.53;;
43664;SDS011;29263;48.172;11.484;2022-11-13T11:54:29;12.17;;;8.27;;
43664;SDS011;29263;48.172;11.484;2022-11-13T11:57:09;13.47;;;9.37;;
43664;SDS011;29263;48.172;11.484;2022-11-13T12:00:05;14.77;;;9.57;;
43664;SDS011;29263;48.172;11.484;2022-11-13T12:02:49;15.07;;;10.10;;
43664;SDS011;29263;48.172;11.484;2022-11-13T12:05:23;13.77;;;9.40;;
43664;SDS011;29263;48.172;11.484;2022-11-13T12:08:16;13.80;;;10.00;;
43664;SDS011;29263;48.172;11.484;2022-11-13T12:22:31;12.10;;;8.40;;
43664;SDS011;29263;48.172;11.484;2022-11-13T12:28:10;13.10;;;8.37;;
43664;SDS011;29263;48.172;11.484;2022-11-13T12:36:06;9.23;;;7.00;;
43664;SDS011;29263;48.172;11.484;2022-11-13T12:46:18;9.83;;;7.83;;
43664;SDS011;29263;48.172;11.484;2022-11-13T12:48:46;12.40;;;7.70;;
43664;SDS011;29263;48.172;11.484;2022-11-13T12:51:16;8.67;;;6.80;;
43664;SDS011;29263;48.172;11.484;2022-11-13T12:53:46;9.30;;;6.47;;
43664;SDS011;29263;48.172;11.484;2022-11-13T12:58:58;11.97;;;7.17;;
43664;SDS011;29263;48.172;11.484;2022-11-13T13:01:27;8.43;;;6.43;;
43664;SDS011;29263;48.172;11.484;2022-11-13T13:06:45;10.30;;;7.40;;
43664;SDS011;29263;48.172;11.484;2022-11-13T13:09:21;8.87;;;6.27;;
43664;SDS011;29263;48.172;11.484;2022-11-13T13:17:29;10.63;;;7.67;;
43664;SDS011;29263;48.172;11.484;2022-11-13T13:19:56;10.57;;;7.30;;
43664;SDS011;29263;48.172;11.484;2022-11-13T13:22:28;12.73;;;8.10;;
43664;SDS011;29263;48.172;11.484;2022-11-13T13:25:05;9.77;;;6.72;;
43664;SDS011;29263;48.172;11.484;2022-11-13T13:27:55;10.73;;;7.90;;
43664;SDS011;29263;48.172;11.484;2022-11-13T13:30:25;10.23;;;6.90;;
43664;SDS011;29263;48.172;11.484;2022-11-13T13:33:09;11.23;;;7.83;;
43664;SDS011;29263;48.172;11.484;2022-11-13T13:41:28;10.97;;;7.47;;
43664;SDS011;29263;48.172;11.484;2022-11-13T13:46:34;9.73;;;7.03;;
43664;SDS011;29263;48.172;11.484;2022-11-13T13:49:03;8.83;;;6.67;;
43664;SDS011;29263;48.172;11.484;2022-11-13T13:51:36;11.40;;;7.55;;
43664;SDS011;29263;48.172;11.484;2022-11-13T13:54:13;9.30;;;7.00;;
43664;SDS011;29263;48.172;11.484;2022-11-13T13:56:44;9.43;;;6.93;;
43664;SDS011;29263;48.172;11.484;2022-11-13T13:59:52;8.77;;;7.13;;
43664;SDS011;29263;48.172;11.484;2022-11-13T14:02:01;8.13;;;6.07;;
43664;SDS011;29263;48.172;11.484;2022-11-13T14:04:32;8.27;;;6.47;;
43664;SDS011;29263;48.172;11.484;2022-11-13T14:07:00;8.43;;;5.90;;
43664;SDS011;29263;48.172;11.484;2022-11-13T14:09:28;8.37;;;6.23;;
43664;SDS011;29263;48.172;11.484;2022-11-13T14:11:58;8.83;;;7.03;;
43664;SDS011;29263;48.172;11.484;2022-11-13T14:14:25;10.47;;;6.23;;
43664;SDS011;29263;48.172;11.484;2022-11-13T14:16:52;8.97;;;6.10;;
43664;SDS011;29263;48.172;11.484;2022-11-13T14:19:20;8.63;;;5.90;;
43664;SDS011;29263;48.172;11.484;2022-11-13T14:21:51;8.73;;;5.73;;
43664;SDS011;29263;48.172;11.484;2022-11-13T14:24:21;8.17;;;5.80;;
43664;SDS011;29263;48.172;11.484;2022-11-13T14:29:21;6.77;;;5.17;;
43664;SDS011;29263;48.172;11.484;2022-11-13T14:32:01;7.07;;;5.13;;
43664;SDS011;29263;48.172;11.484;2022-11-13T14:34:28;7.20;;;5.43;;
43664;SDS011;29263;48.172;11.484;2022-11-13T14:36:55;7.57;;;5.00;;
43664;SDS011;29263;48.172;11.484;2022-11-13T14:39:30;7.67;;;5.00;;
43664;SDS011;29263;48.172;11.484;2022-11-13T14:41:58;6.40;;;4.87;;
43664;SDS011;29263;48.172;11.484;2022-11-13T14:44:28;7.20;;;5.73;;
43664;SDS011;29263;48.172;11.484;2022-11-13T14:47:01;6.87;;;5.50;;
43664;SDS011;29263;48.172;11.484;2022-11-13T14:49:30;7.53;;;6.07;;
43664;SDS011;29263;48.172;11.484;2022-11-13T14:51:58;8.07;;;5.78;;
43664;SDS011;29263;48.172;11.484;2022-11-13T14:54:32;7.37;;;5.60;;
43664;SDS011;29263;48.172;11.484;2022-11-13T14:57:08;7.67;;;5.80;;
43664;SDS011;29263;48.172;11.484;2022-11-13T14:59:35;8.93;;;6.37;;
43664;SDS011;29263;48.172;11.484;2022-11-13T15:02:01;7.27;;;5.77;;
43664;SDS011;29263;48.172;11.484;2022-11-13T15:04:28;10.40;;;6.13;;
43664;SDS011;29263;48.172;11.484;2022-11-13T15:06:56;10.27;;;6.47;;
43664;SDS011;29263;48.172;11.484;2022-11-13T15:09:24;7.07;;;6.07;;
43664;SDS011;29263;48.172;11.484;2022-11-13T15:11:50;9.57;;;6.70;;
43664;SDS011;29263;48.172;11.484;2022-11-13T15:14:17;8.53;;;6.13;;
43664;SDS011;29263;48.172;11.484;2022-11-13T15:16:45;8.77;;;5.97;;
43664;SDS011;29263;48.172;11.484;2022-11-13T15:19:15;11.30;;;6.10;;
43664;SDS011;29263;48.172;11.484;2022-11-13T15:21:42;11.20;;;7.17;;
43664;SDS011;29263;48.172;11.484;2022-11-13T15:24:09;10.70;;;7.17;;
43664;SDS011;29263;48.172;11.484;2022-11-13T15:26:36;8.93;;;6.57;;
43664;SDS011;29263;48.172;11.484;2022-11-13T15:29:02;7.97;;;6.03;;
43664;SDS011;29263;48.172;11.484;2022-11-13T15:31:29;12.73;;;7.90;;
43664;SDS011;29263;48.172;11.484;2022-11-13T15:33:56;9.90;;;6.70;;
43664;SDS011;29263;48.172;11.484;2022-11-13T15:36:22;10.43;;;8.03;;
43664;SDS011;29263;48.172;11.484;2022-11-13T15:38:48;13.00;;;9.20;;
43664;SDS011;29263;48.172;11.484;2022-11-13T15:41:18;10.60;;;8.27;;
43664;SDS011;29263;48.172;11.484;2022-11-13T15:43:54;11.47;;;7.33;;
43664;SDS011;29263;48.172;11.484;2022-11-13T15:46:20;8.57;;;6.60;;
43664;SDS011;29263;48.172;11.484;2022-11-13T15:48:47;10.63;;;7.17;;
43664;SDS011;29263;48.172;11.484;2022-11-13T15:56:36;10.77;;;8.10;;
43664;SDS011;29263;48.172;11.484;2022-11-13T15:59:02;11.57;;;7.47;;
43664;SDS011;29263;48.172;11.484;2022-11-13T16:01:28;12.83;;;8.53;;
43664;SDS011;29263;48.172;11.484;2022-11-13T16:03:53;10.60;;;7.57;;
43664;SDS011;29263;48.172;11.484;2022-11-13T16:06:22;11.73;;;8.80;;
43664;SDS011;29263;48.172;11.484;2022-11-13T16:08:48;11.83;;;8.13;;
43664;SDS011;29263;48.172;11.484;2022-11-13T16:11:17;13.37;;;9.03;;